sensor_id;sensor_type;location;lat;lon;timestamp;P1;durP1;ratioP1;P2;durP2;ratioP2
74229;SDS011;62589;12.568;99.958;2022-11-21T00:00:49;4.47;;;2.15;;
74229;SDS011;62589;12.568;99.958;2022-11-21T00:03:17;7.57;;;1.85;;
74229;SDS011;62589;12.568;99.958;2022-11-21T00:05:45;6.20;;;2.13;;
74229;SDS011;62589;12.568;99.958;2022-11-21T00:08:14;6.00;;;1.83;;
74229;SDS011;62589;12.568;99.958;2022-11-21T00:10:42;6.75;;;2.53;;
74229;SDS011;62589;12.568;99.958;2022-11-21T00:13:13;2.50;;;1.92;;
74229;SDS011;62589;12.568;99.958;2022-11-21T00:15:44;3.55;;;2.00;;
74229;SDS011;62589;12.568;99.958;2022-11-21T00:18:11;2.28;;;1.65;;
74229;SDS011;62589;12.568;99.958;2022-11-21T00:20:39;5.65;;;2.50;;
74229;SDS011;62589;12.568;99.958;2022-11-21T00:23:06;2.63;;;2.30;;
74229;SDS011;62589;12.568;99.958;2022-11-21T00:25:33;6.45;;;2.78;;
74229;SDS011;62589;12.568;99.958;2022-11-21T00:28:00;6.15;;;2.40;;
74229;SDS011;62589;12.568;99.958;2022-11-21T00:30:26;7.43;;;2.28;;
74229;SDS011;62589;12.568;99.958;2022-11-21T00:32:53;3.63;;;2.28;;
74229;SDS011;62589;12.568;99.958;2022-11-21T00:35:19;4.50;;;1.95;;
74229;SDS011;62589;12.568;99.958;2022-11-21T00:37:46;9.65;;;2.70;;
74229;SDS011;62589;12.568;99.958;2022-11-21T00:40:13;6.68;;;2.50;;
74229;SDS011;62589;12.568;99.958;2022-11-21T00:42:39;7.32;;;2.83;;
74229;SDS011;62589;12.568;99.958;2022-11-21T00:45:06;5.35;;;2.17;;
74229;SDS011;62589;12.568;99.958;2022-11-21T00:47:33;3.65;;;2.20;;
74229;SDS011;62589;12.568;99.958;2022-11-21T00:49:59;3.78;;;2.20;;
74229;SDS011;62589;12.568;99.958;2022-11-21T00:52:25;2.10;;;1.83;;
74229;SDS011;62589;12.568;99.958;2022-11-21T00:54:52;4.75;;;2.35;;
74229;SDS011;62589;12.568;99.958;2022-11-21T00:57:18;6.55;;;2.60;;
74229;SDS011;62589;12.568;99.958;2022-11-21T00:59:45;5.63;;;2.42;;
74229;SDS011;62589;12.568;99.958;2022-11-21T01:02:11;7.85;;;2.95;;
74229;SDS011;62589;12.568;99.958;2022-11-21T01:04:38;4.82;;;2.53;;
74229;SDS011;62589;12.568;99.958;2022-11-21T01:07:04;5.47;;;2.35;;
74229;SDS011;62589;12.568;99.958;2022-11-21T01:09:31;6.00;;;2.70;;
74229;SDS011;62589;12.568;99.958;2022-11-21T01:11:57;4.97;;;2.60;;
74229;SDS011;62589;12.568;99.958;2022-11-21T01:14:24;4.38;;;2.47;;
74229;SDS011;62589;12.568;99.958;2022-11-21T01:16:50;4.78;;;2.40;;
74229;SDS011;62589;12.568;99.958;2022-11-21T01:19:16;5.35;;;2.03;;
74229;SDS011;62589;12.568;99.958;2022-11-21T01:21:43;3.00;;;2.08;;
74229;SDS011;62589;12.568;99.958;2022-11-21T01:24:10;4.22;;;2.38;;
74229;SDS011;62589;12.568;99.958;2022-11-21T01:26:37;6.22;;;2.65;;
74229;SDS011;62589;12.568;99.958;2022-11-21T01:29:04;4.45;;;2.50;;
74229;SDS011;62589;12.568;99.958;2022-11-21T01:31:31;4.05;;;2.63;;
74229;SDS011;62589;12.568;99.958;2022-11-21T01:33:58;3.63;;;2.25;;
74229;SDS011;62589;12.568;99.958;2022-11-21T01:36:26;4.60;;;3.08;;
74229;SDS011;62589;12.568;99.958;2022-11-21T01:38:55;4.47;;;2.13;;
74229;SDS011;62589;12.568;99.958;2022-11-21T01:41:27;5.75;;;2.78;;
74229;SDS011;62589;12.568;99.958;2022-11-21T01:44:05;3.80;;;2.30;;
74229;SDS011;62589;12.568;99.958;2022-11-21T01:46:46;3.17;;;2.38;;
74229;SDS011;62589;12.568;99.958;2022-11-21T01:49:17;5.78;;;2.20;;
74229;SDS011;62589;12.568;99.958;2022-11-21T01:52:08;6.53;;;2.70;;
74229;SDS011;62589;12.568;99.958;2022-11-21T01:57:31;4.63;;;2.10;;
74229;SDS011;62589;12.568;99.958;2022-11-21T02:00:22;3.35;;;1.88;;
74229;SDS011;62589;12.568;99.958;2022-11-21T02:02:53;6.22;;;2.65;;
74229;SDS011;62589;12.568;99.958;2022-11-21T02:05:24;4.05;;;2.30;;
74229;SDS011;62589;12.568;99.958;2022-11-21T02:07:54;4.30;;;2.22;;
74229;SDS011;62589;12.568;99.958;2022-11-21T02:10:25;2.50;;;2.13;;
74229;SDS011;62589;12.568;99.958;2022-11-21T02:12:53;3.13;;;2.20;;
74229;SDS011;62589;12.568;99.958;2022-11-21T02:15:23;4.70;;;2.20;;
74229;SDS011;62589;12.568;99.958;2022-11-21T02:17:51;6.53;;;2.53;;
74229;SDS011;62589;12.568;99.958;2022-11-21T02:20:18;5.35;;;2.38;;
74229;SDS011;62589;12.568;99.958;2022-11-21T02:22:53;4.10;;;2.35;;
74229;SDS011;62589;12.568;99.958;2022-11-21T02:25:41;2.22;;;1.95;;
74229;SDS011;62589;12.568;99.958;2022-11-21T02:28:12;2.92;;;2.15;;
74229;SDS011;62589;12.568;99.958;2022-11-21T02:30:41;4.07;;;2.50;;
74229;SDS011;62589;12.568;99.958;2022-11-21T02:33:09;5.05;;;2.50;;
74229;SDS011;62589;12.568;99.958;2022-11-21T02:35:36;4.47;;;2.30;;
74229;SDS011;62589;12.568;99.958;2022-11-21T02:38:05;9.68;;;2.58;;
74229;SDS011;62589;12.568;99.958;2022-11-21T02:40:43;4.97;;;2.25;;
74229;SDS011;62589;12.568;99.958;2022-11-21T02:46:04;4.55;;;2.63;;
74229;SDS011;62589;12.568;99.958;2022-11-21T02:48:30;6.38;;;2.70;;
74229;SDS011;62589;12.568;99.958;2022-11-21T02:50:57;4.18;;;2.60;;
74229;SDS011;62589;12.568;99.958;2022-11-21T02:53:23;5.03;;;2.88;;
74229;SDS011;62589;12.568;99.958;2022-11-21T02:55:50;4.45;;;2.63;;
74229;SDS011;62589;12.568;99.958;2022-11-21T02:58:16;4.70;;;2.63;;
74229;SDS011;62589;12.568;99.958;2022-11-21T03:00:43;3.72;;;2.72;;
74229;SDS011;62589;12.568;99.958;2022-11-21T03:03:10;4.38;;;2.58;;
74229;SDS011;62589;12.568;99.958;2022-11-21T03:05:37;5.50;;;3.15;;
74229;SDS011;62589;12.568;99.958;2022-11-21T03:08:04;6.57;;;2.70;;
74229;SDS011;62589;12.568;99.958;2022-11-21T03:10:31;5.18;;;2.50;;
74229;SDS011;62589;12.568;99.958;2022-11-21T03:12:57;4.10;;;2.40;;
74229;SDS011;62589;12.568;99.958;2022-11-21T03:15:28;4.60;;;2.45;;
74229;SDS011;62589;12.568;99.958;2022-11-21T03:17:55;2.58;;;2.20;;
74229;SDS011;62589;12.568;99.958;2022-11-21T03:20:23;5.45;;;2.60;;
74229;SDS011;62589;12.568;99.958;2022-11-21T03:22:49;5.18;;;2.80;;
74229;SDS011;62589;12.568;99.958;2022-11-21T03:25:17;4.07;;;2.47;;
74229;SDS011;62589;12.568;99.958;2022-11-21T03:27:44;2.33;;;2.13;;
74229;SDS011;62589;12.568;99.958;2022-11-21T03:30:11;3.00;;;2.20;;
74229;SDS011;62589;12.568;99.958;2022-11-21T03:32:37;4.43;;;3.00;;
74229;SDS011;62589;12.568;99.958;2022-11-21T03:35:04;3.38;;;2.60;;
74229;SDS011;62589;12.568;99.958;2022-11-21T03:37:31;5.88;;;2.70;;
74229;SDS011;62589;12.568;99.958;2022-11-21T03:39:57;3.72;;;2.90;;
74229;SDS011;62589;12.568;99.958;2022-11-21T03:42:23;3.78;;;2.90;;
74229;SDS011;62589;12.568;99.958;2022-11-21T03:44:50;3.70;;;3.08;;
74229;SDS011;62589;12.568;99.958;2022-11-21T03:47:16;3.50;;;2.75;;
74229;SDS011;62589;12.568;99.958;2022-11-21T03:49:43;5.57;;;2.72;;
74229;SDS011;62589;12.568;99.958;2022-11-21T03:52:09;5.07;;;3.00;;
74229;SDS011;62589;12.568;99.958;2022-11-21T03:54:35;3.42;;;2.50;;
74229;SDS011;62589;12.568;99.958;2022-11-21T03:57:02;3.20;;;2.85;;
74229;SDS011;62589;12.568;99.958;2022-11-21T03:59:28;4.32;;;2.65;;
74229;SDS011;62589;12.568;99.958;2022-11-21T04:01:54;5.05;;;3.40;;
74229;SDS011;62589;12.568;99.958;2022-11-21T04:04:21;7.20;;;3.30;;
74229;SDS011;62589;12.568;99.958;2022-11-21T04:06:47;4.20;;;3.03;;
74229;SDS011;62589;12.568;99.958;2022-11-21T04:09:14;3.67;;;2.75;;
74229;SDS011;62589;12.568;99.958;2022-11-21T04:11:40;8.20;;;3.28;;
74229;SDS011;62589;12.568;99.958;2022-11-21T04:14:06;5.75;;;3.08;;
74229;SDS011;62589;12.568;99.958;2022-11-21T04:16:33;3.35;;;2.80;;
74229;SDS011;62589;12.568;99.958;2022-11-21T04:18:59;5.00;;;3.08;;
74229;SDS011;62589;12.568;99.958;2022-11-21T04:21:25;6.32;;;2.90;;
74229;SDS011;62589;12.568;99.958;2022-11-21T04:23:52;6.43;;;3.17;;
74229;SDS011;62589;12.568;99.958;2022-11-21T04:26:18;4.90;;;2.72;;
74229;SDS011;62589;12.568;99.958;2022-11-21T04:28:45;4.60;;;2.70;;
74229;SDS011;62589;12.568;99.958;2022-11-21T04:31:11;2.53;;;2.22;;
74229;SDS011;62589;12.568;99.958;2022-11-21T04:33:38;4.82;;;2.75;;
74229;SDS011;62589;12.568;99.958;2022-11-21T04:36:05;5.70;;;2.55;;
74229;SDS011;62589;12.568;99.958;2022-11-21T04:38:32;5.10;;;2.33;;
74229;SDS011;62589;12.568;99.958;2022-11-21T04:40:59;4.25;;;2.47;;
74229;SDS011;62589;12.568;99.958;2022-11-21T04:43:25;3.72;;;2.42;;
74229;SDS011;62589;12.568;99.958;2022-11-21T04:45:51;3.58;;;2.38;;
74229;SDS011;62589;12.568;99.958;2022-11-21T04:48:18;3.88;;;2.22;;
74229;SDS011;62589;12.568;99.958;2022-11-21T04:50:44;4.15;;;2.20;;
74229;SDS011;62589;12.568;99.958;2022-11-21T04:53:11;3.67;;;2.55;;
74229;SDS011;62589;12.568;99.958;2022-11-21T04:55:38;3.88;;;2.53;;
74229;SDS011;62589;12.568;99.958;2022-11-21T04:58:04;4.18;;;2.30;;
74229;SDS011;62589;12.568;99.958;2022-11-21T05:00:30;4.13;;;2.25;;
74229;SDS011;62589;12.568;99.958;2022-11-21T05:03:01;4.35;;;2.67;;
74229;SDS011;62589;12.568;99.958;2022-11-21T05:05:29;4.65;;;2.40;;
74229;SDS011;62589;12.568;99.958;2022-11-21T05:07:55;4.50;;;2.40;;
74229;SDS011;62589;12.568;99.958;2022-11-21T05:10:22;5.05;;;2.22;;
74229;SDS011;62589;12.568;99.958;2022-11-21T05:12:55;4.78;;;2.33;;
74229;SDS011;62589;12.568;99.958;2022-11-21T05:15:36;4.82;;;2.70;;
74229;SDS011;62589;12.568;99.958;2022-11-21T05:18:02;6.30;;;2.90;;
74229;SDS011;62589;12.568;99.958;2022-11-21T05:20:29;4.60;;;2.35;;
74229;SDS011;62589;12.568;99.958;2022-11-21T05:22:55;5.32;;;2.92;;
74229;SDS011;62589;12.568;99.958;2022-11-21T05:25:22;4.50;;;2.80;;
74229;SDS011;62589;12.568;99.958;2022-11-21T05:27:48;4.93;;;2.92;;
74229;SDS011;62589;12.568;99.958;2022-11-21T05:30:14;4.50;;;2.85;;
74229;SDS011;62589;12.568;99.958;2022-11-21T05:32:42;2.92;;;2.47;;
74229;SDS011;62589;12.568;99.958;2022-11-21T05:35:08;4.05;;;2.25;;
74229;SDS011;62589;12.568;99.958;2022-11-21T05:37:35;4.45;;;2.28;;
74229;SDS011;62589;12.568;99.958;2022-11-21T05:40:01;4.93;;;2.65;;
74229;SDS011;62589;12.568;99.958;2022-11-21T05:42:28;4.38;;;2.45;;
74229;SDS011;62589;12.568;99.958;2022-11-21T05:45:06;3.47;;;2.20;;
74229;SDS011;62589;12.568;99.958;2022-11-21T05:47:33;3.67;;;2.58;;
74229;SDS011;62589;12.568;99.958;2022-11-21T05:49:59;3.40;;;2.38;;
74229;SDS011;62589;12.568;99.958;2022-11-21T05:52:26;5.07;;;2.70;;
74229;SDS011;62589;12.568;99.958;2022-11-21T05:54:53;4.68;;;2.92;;
74229;SDS011;62589;12.568;99.958;2022-11-21T05:57:19;4.30;;;2.45;;
74229;SDS011;62589;12.568;99.958;2022-11-21T05:59:46;4.10;;;2.45;;
74229;SDS011;62589;12.568;99.958;2022-11-21T06:02:12;3.72;;;2.47;;
74229;SDS011;62589;12.568;99.958;2022-11-21T06:04:58;4.40;;;2.38;;
74229;SDS011;62589;12.568;99.958;2022-11-21T06:07:24;5.22;;;2.88;;
74229;SDS011;62589;12.568;99.958;2022-11-21T06:09:51;4.85;;;2.63;;
74229;SDS011;62589;12.568;99.958;2022-11-21T06:12:17;2.83;;;2.47;;
74229;SDS011;62589;12.568;99.958;2022-11-21T06:14:44;3.22;;;2.28;;
74229;SDS011;62589;12.568;99.958;2022-11-21T06:17:10;3.90;;;2.38;;
74229;SDS011;62589;12.568;99.958;2022-11-21T06:19:37;5.82;;;2.45;;
74229;SDS011;62589;12.568;99.958;2022-11-21T06:22:03;2.45;;;1.92;;
74229;SDS011;62589;12.568;99.958;2022-11-21T06:24:30;3.70;;;2.17;;
74229;SDS011;62589;12.568;99.958;2022-11-21T06:26:56;3.28;;;2.25;;
74229;SDS011;62589;12.568;99.958;2022-11-21T06:29:23;3.05;;;2.45;;
74229;SDS011;62589;12.568;99.958;2022-11-21T06:31:49;4.68;;;2.85;;
74229;SDS011;62589;12.568;99.958;2022-11-21T06:34:16;3.42;;;2.08;;
74229;SDS011;62589;12.568;99.958;2022-11-21T06:36:42;5.63;;;2.13;;
74229;SDS011;62589;12.568;99.958;2022-11-21T06:39:09;2.83;;;1.65;;
74229;SDS011;62589;12.568;99.958;2022-11-21T06:41:35;2.00;;;1.75;;
74229;SDS011;62589;12.568;99.958;2022-11-21T06:44:01;2.88;;;1.73;;
74229;SDS011;62589;12.568;99.958;2022-11-21T06:46:28;2.95;;;1.35;;
74229;SDS011;62589;12.568;99.958;2022-11-21T06:48:54;3.85;;;1.92;;
74229;SDS011;62589;12.568;99.958;2022-11-21T06:51:22;4.00;;;1.83;;
74229;SDS011;62589;12.568;99.958;2022-11-21T06:53:53;3.53;;;1.70;;
74229;SDS011;62589;12.568;99.958;2022-11-21T06:56:25;3.87;;;2.00;;
74229;SDS011;62589;12.568;99.958;2022-11-21T06:58:53;3.42;;;1.52;;
74229;SDS011;62589;12.568;99.958;2022-11-21T07:01:20;2.13;;;1.33;;
74229;SDS011;62589;12.568;99.958;2022-11-21T07:03:46;4.15;;;2.03;;
74229;SDS011;62589;12.568;99.958;2022-11-21T07:06:13;3.72;;;1.95;;
74229;SDS011;62589;12.568;99.958;2022-11-21T07:08:39;2.95;;;1.92;;
74229;SDS011;62589;12.568;99.958;2022-11-21T07:11:07;3.20;;;2.15;;
74229;SDS011;62589;12.568;99.958;2022-11-21T07:13:35;3.40;;;1.92;;
74229;SDS011;62589;12.568;99.958;2022-11-21T07:16:06;3.53;;;1.80;;
74229;SDS011;62589;12.568;99.958;2022-11-21T07:18:34;3.20;;;1.70;;
74229;SDS011;62589;12.568;99.958;2022-11-21T07:21:03;5.40;;;1.75;;
74229;SDS011;62589;12.568;99.958;2022-11-21T07:23:30;3.75;;;2.13;;
74229;SDS011;62589;12.568;99.958;2022-11-21T07:26:01;2.42;;;1.70;;
74229;SDS011;62589;12.568;99.958;2022-11-21T07:28:29;4.10;;;1.85;;
74229;SDS011;62589;12.568;99.958;2022-11-21T07:30:56;2.10;;;1.65;;
74229;SDS011;62589;12.568;99.958;2022-11-21T07:33:24;2.58;;;1.50;;
74229;SDS011;62589;12.568;99.958;2022-11-21T07:35:50;4.25;;;1.90;;
74229;SDS011;62589;12.568;99.958;2022-11-21T07:38:17;2.80;;;1.92;;
74229;SDS011;62589;12.568;99.958;2022-11-21T07:40:43;3.17;;;2.10;;
74229;SDS011;62589;12.568;99.958;2022-11-21T07:43:10;3.72;;;2.25;;
74229;SDS011;62589;12.568;99.958;2022-11-21T07:45:36;2.45;;;1.90;;
74229;SDS011;62589;12.568;99.958;2022-11-21T07:48:04;4.18;;;2.20;;
74229;SDS011;62589;12.568;99.958;2022-11-21T07:50:32;3.70;;;2.15;;
74229;SDS011;62589;12.568;99.958;2022-11-21T07:52:59;4.65;;;2.53;;
74229;SDS011;62589;12.568;99.958;2022-11-21T07:55:27;5.07;;;2.55;;
74229;SDS011;62589;12.568;99.958;2022-11-21T07:58:01;3.35;;;2.60;;
74229;SDS011;62589;12.568;99.958;2022-11-21T08:00:30;5.22;;;2.78;;
74229;SDS011;62589;12.568;99.958;2022-11-21T08:02:57;3.35;;;2.55;;
74229;SDS011;62589;12.568;99.958;2022-11-21T08:05:24;2.88;;;2.25;;
74229;SDS011;62589;12.568;99.958;2022-11-21T08:07:50;3.60;;;2.50;;
74229;SDS011;62589;12.568;99.958;2022-11-21T08:10:17;5.03;;;2.97;;
74229;SDS011;62589;12.568;99.958;2022-11-21T08:12:44;5.63;;;2.78;;
74229;SDS011;62589;12.568;99.958;2022-11-21T08:15:10;4.30;;;2.97;;
74229;SDS011;62589;12.568;99.958;2022-11-21T08:17:37;5.25;;;3.10;;
74229;SDS011;62589;12.568;99.958;2022-11-21T08:20:05;4.80;;;2.97;;
74229;SDS011;62589;12.568;99.958;2022-11-21T08:22:36;5.65;;;3.05;;
74229;SDS011;62589;12.568;99.958;2022-11-21T08:25:04;5.75;;;3.38;;
74229;SDS011;62589;12.568;99.958;2022-11-21T08:27:30;8.65;;;4.20;;
74229;SDS011;62589;12.568;99.958;2022-11-21T08:29:57;4.72;;;3.20;;
74229;SDS011;62589;12.568;99.958;2022-11-21T08:32:23;4.13;;;2.72;;
74229;SDS011;62589;12.568;99.958;2022-11-21T08:34:49;5.97;;;4.28;;
74229;SDS011;62589;12.568;99.958;2022-11-21T08:37:16;6.00;;;3.85;;
74229;SDS011;62589;12.568;99.958;2022-11-21T08:39:42;4.15;;;3.70;;
74229;SDS011;62589;12.568;99.958;2022-11-21T08:42:09;4.53;;;3.42;;
74229;SDS011;62589;12.568;99.958;2022-11-21T08:44:35;5.63;;;3.92;;
74229;SDS011;62589;12.568;99.958;2022-11-21T08:47:01;6.30;;;3.60;;
74229;SDS011;62589;12.568;99.958;2022-11-21T08:49:28;7.03;;;3.72;;
74229;SDS011;62589;12.568;99.958;2022-11-21T08:51:55;6.32;;;3.55;;
74229;SDS011;62589;12.568;99.958;2022-11-21T08:54:22;6.63;;;3.97;;
74229;SDS011;62589;12.568;99.958;2022-11-21T08:56:49;4.75;;;3.80;;
74229;SDS011;62589;12.568;99.958;2022-11-21T08:59:16;7.50;;;4.45;;
74229;SDS011;62589;12.568;99.958;2022-11-21T09:01:43;5.53;;;3.70;;
74229;SDS011;62589;12.568;99.958;2022-11-21T09:04:09;8.85;;;4.30;;
74229;SDS011;62589;12.568;99.958;2022-11-21T09:06:36;4.25;;;3.83;;
74229;SDS011;62589;12.568;99.958;2022-11-21T09:09:06;4.47;;;3.80;;
74229;SDS011;62589;12.568;99.958;2022-11-21T09:11:33;6.53;;;3.65;;
74229;SDS011;62589;12.568;99.958;2022-11-21T09:14:02;7.80;;;3.95;;
74229;SDS011;62589;12.568;99.958;2022-11-21T09:16:40;10.00;;;3.95;;
74229;SDS011;62589;12.568;99.958;2022-11-21T09:19:18;5.45;;;4.00;;
74229;SDS011;62589;12.568;99.958;2022-11-21T09:21:47;7.30;;;4.38;;
74229;SDS011;62589;12.568;99.958;2022-11-21T09:24:15;5.28;;;4.18;;
74229;SDS011;62589;12.568;99.958;2022-11-21T09:26:41;7.00;;;4.38;;
74229;SDS011;62589;12.568;99.958;2022-11-21T09:29:08;6.43;;;4.25;;
74229;SDS011;62589;12.568;99.958;2022-11-21T09:31:36;5.45;;;3.85;;
74229;SDS011;62589;12.568;99.958;2022-11-21T09:34:02;4.70;;;3.90;;
74229;SDS011;62589;12.568;99.958;2022-11-21T09:36:29;4.18;;;3.55;;
74229;SDS011;62589;12.568;99.958;2022-11-21T09:38:55;6.22;;;3.80;;
74229;SDS011;62589;12.568;99.958;2022-11-21T09:53:01;6.97;;;4.80;;
74229;SDS011;62589;12.568;99.958;2022-11-21T09:55:48;6.10;;;4.25;;
74229;SDS011;62589;12.568;99.958;2022-11-21T10:01:13;7.00;;;4.35;;
74229;SDS011;62589;12.568;99.958;2022-11-21T10:03:42;5.85;;;4.55;;
74229;SDS011;62589;12.568;99.958;2022-11-21T10:06:18;7.68;;;4.22;;
74229;SDS011;62589;12.568;99.958;2022-11-21T10:15:12;4.68;;;4.25;;
74229;SDS011;62589;12.568;99.958;2022-11-21T10:21:02;5.57;;;4.50;;
74229;SDS011;62589;12.568;99.958;2022-11-21T10:23:57;7.57;;;4.60;;
74229;SDS011;62589;12.568;99.958;2022-11-21T10:29:43;4.95;;;4.22;;
74229;SDS011;62589;12.568;99.958;2022-11-21T10:32:19;4.82;;;3.88;;
74229;SDS011;62589;12.568;99.958;2022-11-21T10:34:54;6.97;;;4.43;;
74229;SDS011;62589;12.568;99.958;2022-11-21T10:37:30;5.80;;;4.30;;
74229;SDS011;62589;12.568;99.958;2022-11-21T10:40:15;5.35;;;4.10;;
74229;SDS011;62589;12.568;99.958;2022-11-21T10:43:18;6.65;;;4.78;;
74229;SDS011;62589;12.568;99.958;2022-11-21T10:46:12;7.20;;;4.40;;
74229;SDS011;62589;12.568;99.958;2022-11-21T10:48:38;5.80;;;4.30;;
74229;SDS011;62589;12.568;99.958;2022-11-21T10:54:04;5.80;;;4.07;;
74229;SDS011;62589;12.568;99.958;2022-11-21T10:56:44;5.53;;;4.45;;
74229;SDS011;62589;12.568;99.958;2022-11-21T10:59:12;5.45;;;4.63;;
74229;SDS011;62589;12.568;99.958;2022-11-21T11:01:54;6.82;;;4.50;;
74229;SDS011;62589;12.568;99.958;2022-11-21T11:04:26;7.38;;;4.57;;
74229;SDS011;62589;12.568;99.958;2022-11-21T11:06:55;6.88;;;5.10;;
74229;SDS011;62589;12.568;99.958;2022-11-21T11:09:25;9.65;;;4.80;;
74229;SDS011;62589;12.568;99.958;2022-11-21T11:12:15;6.47;;;4.85;;
74229;SDS011;62589;12.568;99.958;2022-11-21T11:15:15;5.78;;;4.85;;
74229;SDS011;62589;12.568;99.958;2022-11-21T11:17:48;7.47;;;4.80;;
74229;SDS011;62589;12.568;99.958;2022-11-21T11:25:58;8.38;;;5.80;;
74229;SDS011;62589;12.568;99.958;2022-11-21T11:30:58;8.60;;;6.07;;
74229;SDS011;62589;12.568;99.958;2022-11-21T11:33:29;11.18;;;8.02;;
74229;SDS011;62589;12.568;99.958;2022-11-21T11:36:26;9.20;;;6.93;;
74229;SDS011;62589;12.568;99.958;2022-11-21T11:39:05;12.13;;;9.38;;
74229;SDS011;62589;12.568;99.958;2022-11-21T11:41:54;14.23;;;10.57;;
74229;SDS011;62589;12.568;99.958;2022-11-21T11:47:54;15.15;;;10.70;;
74229;SDS011;62589;12.568;99.958;2022-11-21T11:50:26;16.23;;;10.95;;
74229;SDS011;62589;12.568;99.958;2022-11-21T11:53:32;14.90;;;10.10;;
74229;SDS011;62589;12.568;99.958;2022-11-21T11:56:27;15.45;;;10.40;;
74229;SDS011;62589;12.568;99.958;2022-11-21T12:02:00;12.98;;;9.63;;
74229;SDS011;62589;12.568;99.958;2022-11-21T12:04:33;11.70;;;8.73;;
74229;SDS011;62589;12.568;99.958;2022-11-21T12:07:20;12.05;;;8.55;;
74229;SDS011;62589;12.568;99.958;2022-11-21T12:10:05;9.77;;;7.85;;
74229;SDS011;62589;12.568;99.958;2022-11-21T12:12:41;11.05;;;8.77;;
74229;SDS011;62589;12.568;99.958;2022-11-21T12:15:30;12.45;;;8.82;;
74229;SDS011;62589;12.568;99.958;2022-11-21T12:18:25;12.43;;;8.68;;
74229;SDS011;62589;12.568;99.958;2022-11-21T12:21:10;10.23;;;7.75;;
74229;SDS011;62589;12.568;99.958;2022-11-21T12:23:57;11.23;;;8.73;;
74229;SDS011;62589;12.568;99.958;2022-11-21T12:26:39;11.98;;;9.23;;
74229;SDS011;62589;12.568;99.958;2022-11-21T12:29:33;14.38;;;9.35;;
74229;SDS011;62589;12.568;99.958;2022-11-21T12:32:32;11.40;;;9.07;;
74229;SDS011;62589;12.568;99.958;2022-11-21T12:35:30;10.68;;;9.57;;
74229;SDS011;62589;12.568;99.958;2022-11-21T12:41:27;11.38;;;9.02;;
74229;SDS011;62589;12.568;99.958;2022-11-21T12:44:28;12.40;;;9.52;;
74229;SDS011;62589;12.568;99.958;2022-11-21T12:47:23;11.93;;;9.70;;
74229;SDS011;62589;12.568;99.958;2022-11-21T12:50:27;12.75;;;9.18;;
74229;SDS011;62589;12.568;99.958;2022-11-21T12:53:21;12.27;;;9.15;;
74229;SDS011;62589;12.568;99.958;2022-11-21T12:56:14;11.57;;;8.65;;
74229;SDS011;62589;12.568;99.958;2022-11-21T12:58:56;11.18;;;8.93;;
74229;SDS011;62589;12.568;99.958;2022-11-21T13:01:27;11.65;;;9.35;;
74229;SDS011;62589;12.568;99.958;2022-11-21T13:04:13;12.95;;;9.30;;
74229;SDS011;62589;12.568;99.958;2022-11-21T13:06:43;16.42;;;10.45;;
74229;SDS011;62589;12.568;99.958;2022-11-21T13:09:18;12.93;;;9.88;;
74229;SDS011;62589;12.568;99.958;2022-11-21T13:11:55;13.98;;;9.32;;
74229;SDS011;62589;12.568;99.958;2022-11-21T13:14:39;13.82;;;10.35;;
74229;SDS011;62589;12.568;99.958;2022-11-21T13:17:13;12.82;;;8.73;;
74229;SDS011;62589;12.568;99.958;2022-11-21T13:20:05;11.77;;;8.88;;
74229;SDS011;62589;12.568;99.958;2022-11-21T13:22:59;12.93;;;9.27;;
74229;SDS011;62589;12.568;99.958;2022-11-21T13:25:34;11.23;;;9.90;;
74229;SDS011;62589;12.568;99.958;2022-11-21T13:30:58;17.88;;;9.68;;
74229;SDS011;62589;12.568;99.958;2022-11-21T13:39:28;13.07;;;9.25;;
74229;SDS011;62589;12.568;99.958;2022-11-21T13:42:00;12.27;;;9.55;;
74229;SDS011;62589;12.568;99.958;2022-11-21T13:44:41;12.02;;;9.30;;
74229;SDS011;62589;12.568;99.958;2022-11-21T13:47:28;12.75;;;9.80;;
74229;SDS011;62589;12.568;99.958;2022-11-21T13:50:16;10.02;;;8.80;;
74229;SDS011;62589;12.568;99.958;2022-11-21T13:53:15;12.25;;;8.40;;
74229;SDS011;62589;12.568;99.958;2022-11-21T13:56:22;10.77;;;9.00;;
74229;SDS011;62589;12.568;99.958;2022-11-21T13:59:16;10.00;;;8.43;;
74229;SDS011;62589;12.568;99.958;2022-11-21T14:05:05;13.73;;;9.05;;
74229;SDS011;62589;12.568;99.958;2022-11-21T14:07:49;12.38;;;8.18;;
74229;SDS011;62589;12.568;99.958;2022-11-21T14:12:58;9.98;;;8.20;;
74229;SDS011;62589;12.568;99.958;2022-11-21T14:15:30;11.18;;;8.23;;
74229;SDS011;62589;12.568;99.958;2022-11-21T14:18:18;11.18;;;8.27;;
74229;SDS011;62589;12.568;99.958;2022-11-21T14:20:57;10.68;;;8.10;;
74229;SDS011;62589;12.568;99.958;2022-11-21T14:23:26;14.55;;;7.80;;
74229;SDS011;62589;12.568;99.958;2022-11-21T14:26:02;11.65;;;7.72;;
74229;SDS011;62589;12.568;99.958;2022-11-21T14:28:36;9.75;;;8.32;;
74229;SDS011;62589;12.568;99.958;2022-11-21T14:31:04;11.00;;;8.15;;
74229;SDS011;62589;12.568;99.958;2022-11-21T14:33:34;12.20;;;7.18;;
74229;SDS011;62589;12.568;99.958;2022-11-21T14:38:51;11.35;;;7.47;;
74229;SDS011;62589;12.568;99.958;2022-11-21T14:44:14;11.82;;;7.35;;
74229;SDS011;62589;12.568;99.958;2022-11-21T14:46:43;10.38;;;7.43;;
74229;SDS011;62589;12.568;99.958;2022-11-21T14:52:15;9.70;;;6.85;;
74229;SDS011;62589;12.568;99.958;2022-11-21T14:54:49;9.35;;;6.68;;
74229;SDS011;62589;12.568;99.958;2022-11-21T14:57:26;12.30;;;7.80;;
74229;SDS011;62589;12.568;99.958;2022-11-21T15:00:06;7.78;;;6.70;;
74229;SDS011;62589;12.568;99.958;2022-11-21T15:02:35;9.10;;;6.93;;
74229;SDS011;62589;12.568;99.958;2022-11-21T15:05:04;9.48;;;7.32;;
74229;SDS011;62589;12.568;99.958;2022-11-21T15:07:38;10.55;;;7.60;;
74229;SDS011;62589;12.568;99.958;2022-11-21T15:10:13;9.38;;;7.53;;
74229;SDS011;62589;12.568;99.958;2022-11-21T15:12:51;11.23;;;8.25;;
74229;SDS011;62589;12.568;99.958;2022-11-21T15:18:17;13.65;;;10.30;;
74229;SDS011;62589;12.568;99.958;2022-11-21T15:20:51;15.63;;;10.73;;
74229;SDS011;62589;12.568;99.958;2022-11-21T15:23:33;17.10;;;11.65;;
74229;SDS011;62589;12.568;99.958;2022-11-21T15:26:02;16.07;;;11.87;;
74229;SDS011;62589;12.568;99.958;2022-11-21T15:28:30;19.05;;;12.27;;
74229;SDS011;62589;12.568;99.958;2022-11-21T15:36:28;15.07;;;11.52;;
74229;SDS011;62589;12.568;99.958;2022-11-21T15:39:03;14.77;;;11.23;;
74229;SDS011;62589;12.568;99.958;2022-11-21T15:41:32;14.77;;;11.20;;
74229;SDS011;62589;12.568;99.958;2022-11-21T15:44:18;15.35;;;10.60;;
74229;SDS011;62589;12.568;99.958;2022-11-21T15:46:49;14.30;;;10.18;;
74229;SDS011;62589;12.568;99.958;2022-11-21T15:49:16;14.80;;;10.73;;
74229;SDS011;62589;12.568;99.958;2022-11-21T15:51:44;17.85;;;10.93;;
74229;SDS011;62589;12.568;99.958;2022-11-21T15:54:14;14.73;;;9.80;;
74229;SDS011;62589;12.568;99.958;2022-11-21T15:56:43;13.27;;;10.15;;
74229;SDS011;62589;12.568;99.958;2022-11-21T15:59:11;16.13;;;10.35;;
74229;SDS011;62589;12.568;99.958;2022-11-21T16:01:39;14.00;;;9.85;;
74229;SDS011;62589;12.568;99.958;2022-11-21T16:04:06;14.05;;;10.25;;
74229;SDS011;62589;12.568;99.958;2022-11-21T16:06:35;14.75;;;10.50;;
74229;SDS011;62589;12.568;99.958;2022-11-21T16:09:02;15.05;;;10.13;;
74229;SDS011;62589;12.568;99.958;2022-11-21T16:11:30;13.65;;;9.82;;
74229;SDS011;62589;12.568;99.958;2022-11-21T16:14:02;15.27;;;10.18;;
74229;SDS011;62589;12.568;99.958;2022-11-21T16:16:33;19.20;;;10.48;;
74229;SDS011;62589;12.568;99.958;2022-11-21T16:19:03;14.27;;;9.63;;
74229;SDS011;62589;12.568;99.958;2022-11-21T16:21:30;15.30;;;9.45;;